createdAt,value
2019-03-25T00:00:04.169Z,1009.22
2019-03-25T00:01:05.534Z,1009.21
2019-03-25T00:02:06.922Z,1009.16
2019-03-25T00:03:08.323Z,1009.14
2019-03-25T00:04:09.704Z,1009.13
2019-03-25T00:05:11.109Z,1009.10
2019-03-25T00:06:12.497Z,1009.05
2019-03-25T00:07:13.875Z,1009.07
2019-03-25T00:08:15.265Z,1009.04
2019-03-25T00:09:16.649Z,1009.02
2019-03-25T00:10:18.069Z,1008.95
2019-03-25T00:11:19.443Z,1008.88
2019-03-25T00:12:20.843Z,1008.86
2019-03-25T00:13:22.206Z,1008.89
2019-03-25T00:14:23.599Z,1008.83
2019-03-25T00:15:24.992Z,1008.84
2019-03-25T00:16:26.369Z,1008.79
2019-03-25T00:17:27.763Z,1008.82
2019-03-25T00:18:29.149Z,1008.78
2019-03-25T00:19:30.533Z,1008.77
2019-03-25T00:20:32.594Z,1008.75
2019-03-25T00:21:33.994Z,1008.71
2019-03-25T00:22:35.382Z,1008.67
2019-03-25T00:23:36.766Z,1008.65
2019-03-25T00:24:38.882Z,1008.60
2019-03-25T00:25:39.510Z,1008.59
2019-03-25T00:26:40.902Z,1008.55
2019-03-25T00:27:42.272Z,1008.52
2019-03-25T00:28:43.673Z,1008.53
2019-03-25T00:29:45.054Z,1008.50
2019-03-25T00:30:46.452Z,1008.43
2019-03-25T00:31:47.892Z,1008.48
2019-03-25T00:32:49.215Z,1008.46
2019-03-25T00:33:50.610Z,1008.42
2019-03-25T00:34:51.992Z,1008.40
2019-03-25T00:35:53.371Z,1008.33
2019-03-25T00:36:54.768Z,1008.33
2019-03-25T00:37:56.168Z,1008.31
2019-03-25T00:38:57.546Z,1008.22
2019-03-25T00:39:58.941Z,1008.20
2019-03-25T00:41:00.326Z,1008.18
2019-03-25T00:42:01.730Z,1008.19
2019-03-25T00:43:03.094Z,1008.17
2019-03-25T00:44:04.485Z,1008.14
2019-03-25T00:45:05.873Z,1008.09
2019-03-25T00:46:07.259Z,1008.09
2019-03-25T00:47:08.642Z,1008.03
2019-03-25T00:48:10.025Z,1008.01
2019-03-25T00:49:11.406Z,1007.94
2019-03-25T00:50:12.798Z,1007.93
2019-03-25T00:51:14.195Z,1007.91
2019-03-25T00:52:15.581Z,1007.92
2019-03-25T00:53:16.967Z,1007.87
2019-03-25T00:54:18.410Z,1007.89
2019-03-25T00:55:19.799Z,1007.88
2019-03-25T00:56:21.178Z,1007.87
2019-03-25T00:57:22.562Z,1007.82
2019-03-25T00:58:23.952Z,1007.86
2019-03-25T00:59:25.340Z,1007.76
2019-03-25T01:00:26.726Z,1007.70
2019-03-25T01:01:28.118Z,1007.68
2019-03-25T01:02:29.514Z,1007.72
2019-03-25T01:03:30.910Z,1007.67
2019-03-25T01:04:32.307Z,1007.66
2019-03-25T01:05:33.693Z,1007.64
2019-03-25T01:06:35.060Z,1007.59
2019-03-25T01:07:36.453Z,1007.57
2019-03-25T01:08:37.840Z,1007.55
2019-03-25T01:09:39.227Z,1007.57
2019-03-25T01:10:40.650Z,1007.56
2019-03-25T01:11:49.095Z,1007.54
2019-03-25T01:12:44.463Z,1007.52
2019-03-25T01:13:45.838Z,1007.52
2019-03-25T01:14:47.223Z,1007.49
2019-03-25T01:15:48.607Z,1007.44
2019-03-25T01:16:49.997Z,1007.42
2019-03-25T01:17:51.393Z,1007.41
2019-03-25T01:18:52.780Z,1007.37
2019-03-25T01:19:55.594Z,1007.36
2019-03-25T01:20:57.017Z,1007.32
2019-03-25T01:21:58.400Z,1007.35
2019-03-25T01:22:59.794Z,1007.28
2019-03-25T01:24:01.176Z,1007.24
2019-03-25T01:25:02.823Z,1007.27
2019-03-25T01:26:03.936Z,1007.22
2019-03-25T01:27:05.319Z,1007.20
2019-03-25T01:28:06.702Z,1007.19
2019-03-25T01:29:08.082Z,1007.15
2019-03-25T01:30:09.458Z,1007.17
2019-03-25T01:31:10.853Z,1007.13
2019-03-25T01:32:12.239Z,1007.10
2019-03-25T01:33:13.642Z,1007.14
2019-03-25T01:34:15.033Z,1007.07
2019-03-25T01:35:16.412Z,1007.05
2019-03-25T01:36:17.848Z,1007.10
2019-03-25T01:37:19.203Z,1007.08
2019-03-25T01:38:20.629Z,1007.07
2019-03-25T01:39:21.975Z,1007.04
2019-03-25T01:40:23.354Z,1006.95
2019-03-25T01:41:24.738Z,1006.96
2019-03-25T01:42:26.121Z,1006.93
2019-03-25T01:43:27.493Z,1006.91
2019-03-25T01:44:28.877Z,1006.94
2019-03-25T01:45:30.273Z,1006.90
2019-03-25T01:46:31.653Z,1006.86
2019-03-25T01:47:33.036Z,1006.90
2019-03-25T01:48:34.415Z,1006.90
2019-03-25T01:49:35.805Z,1006.87
2019-03-25T01:50:37.194Z,1006.85
2019-03-25T01:51:38.583Z,1006.82
2019-03-25T01:52:39.970Z,1006.82
2019-03-25T01:53:41.344Z,1006.78
2019-03-25T01:54:42.731Z,1006.78
2019-03-25T01:55:44.126Z,1006.75
2019-03-25T01:56:45.508Z,1006.74
2019-03-25T01:57:46.892Z,1006.74
2019-03-25T01:58:48.276Z,1006.64
2019-03-25T01:59:49.670Z,1006.63
2019-03-25T02:00:51.054Z,1006.66
2019-03-25T02:01:52.441Z,1006.67
2019-03-25T02:02:53.816Z,1006.66
2019-03-25T02:03:55.206Z,1006.62
2019-03-25T02:04:56.588Z,1006.60
2019-03-25T02:05:57.980Z,1006.55
2019-03-25T02:06:59.369Z,1006.53
2019-03-25T02:08:00.769Z,1006.52
2019-03-25T02:09:02.147Z,1006.50
2019-03-25T02:10:03.525Z,1006.47
2019-03-25T02:11:04.917Z,1006.44
2019-03-25T02:12:06.305Z,1006.39
2019-03-25T02:13:07.689Z,1006.35
2019-03-25T02:14:09.075Z,1006.32
2019-03-25T02:15:10.449Z,1006.31
2019-03-25T02:16:11.844Z,1006.25
2019-03-25T02:17:13.234Z,1006.27
2019-03-25T02:18:14.608Z,1006.28
2019-03-25T02:19:15.995Z,1006.25
2019-03-25T02:20:25.953Z,1006.21
2019-03-25T02:21:18.746Z,1006.21
2019-03-25T02:22:20.128Z,1006.22
2019-03-25T02:23:21.514Z,1006.14
2019-03-25T02:24:22.902Z,1006.12
2019-03-25T02:25:25.774Z,1006.06
2019-03-25T02:26:25.638Z,1006.05
2019-03-25T02:27:27.019Z,1006.03
2019-03-25T02:28:28.412Z,1006.01
2019-03-25T02:29:29.797Z,1006.01
2019-03-25T02:30:31.195Z,1005.99
2019-03-25T02:31:32.566Z,1005.94
2019-03-25T02:32:33.961Z,1005.94
2019-03-25T02:33:35.341Z,1005.91
2019-03-25T02:34:36.727Z,1005.94
2019-03-25T02:35:38.110Z,1005.92
2019-03-25T02:36:39.512Z,1005.88
2019-03-25T02:37:40.915Z,1005.89
2019-03-25T02:38:42.287Z,1005.86
2019-03-25T02:39:43.675Z,1005.79
2019-03-25T02:40:45.072Z,1005.81
2019-03-25T02:41:46.479Z,1005.76
2019-03-25T02:42:47.839Z,1005.80
2019-03-25T02:43:49.230Z,1005.72
2019-03-25T02:44:50.616Z,1005.71
2019-03-25T02:45:52.024Z,1005.64
2019-03-25T02:46:53.417Z,1005.65
2019-03-25T02:47:54.793Z,1005.58
2019-03-25T02:48:56.180Z,1005.60
2019-03-25T02:49:57.575Z,1005.59
2019-03-25T02:50:58.980Z,1005.52
2019-03-25T02:52:00.364Z,1005.51
2019-03-25T02:53:01.753Z,1005.49
2019-03-25T02:54:03.123Z,1005.49
2019-03-25T02:55:04.515Z,1005.47
2019-03-25T02:56:05.899Z,1005.45
2019-03-25T02:57:07.285Z,1005.44
2019-03-25T02:58:08.675Z,1005.43
2019-03-25T02:59:10.069Z,1005.41
2019-03-25T03:00:11.498Z,1005.45
2019-03-25T03:01:12.801Z,1005.40
2019-03-25T03:02:14.192Z,1005.34
2019-03-25T03:03:15.584Z,1005.30
2019-03-25T03:04:16.984Z,1005.29
2019-03-25T03:05:18.375Z,1005.26
2019-03-25T03:06:19.763Z,1005.21
2019-03-25T03:07:21.143Z,1005.19
2019-03-25T03:08:22.527Z,1005.20
2019-03-25T03:09:23.912Z,1005.17
2019-03-25T03:10:25.303Z,1005.16
2019-03-25T03:11:26.678Z,1005.10
2019-03-25T03:12:28.065Z,1005.05
2019-03-25T03:13:29.452Z,1004.97
2019-03-25T03:14:30.832Z,1004.91
2019-03-25T03:15:32.219Z,1004.88
2019-03-25T03:16:33.607Z,1004.86
2019-03-25T03:17:34.995Z,1004.84
2019-03-25T03:18:36.370Z,1004.87
2019-03-25T03:19:37.755Z,1004.82
2019-03-25T03:20:39.145Z,1004.80
2019-03-25T03:21:40.544Z,1004.76
2019-03-25T03:22:41.885Z,1004.78
2019-03-25T03:23:43.266Z,1004.72
2019-03-25T03:24:44.644Z,1004.70
2019-03-25T03:25:56.922Z,1004.69
2019-03-25T03:26:47.396Z,1004.68
2019-03-25T03:27:48.767Z,1004.66
2019-03-25T03:28:50.153Z,1004.66
2019-03-25T03:29:52.436Z,1004.59
2019-03-25T03:30:53.855Z,1004.59
2019-03-25T03:31:55.223Z,1004.51
2019-03-25T03:32:56.604Z,1004.52
2019-03-25T03:33:57.984Z,1004.47
2019-03-25T03:34:59.375Z,1004.48
2019-03-25T03:36:00.756Z,1004.44
2019-03-25T03:37:02.149Z,1004.41
2019-03-25T03:38:03.534Z,1004.39
2019-03-25T03:39:04.929Z,1004.35
2019-03-25T03:40:06.303Z,1004.32
2019-03-25T03:41:07.688Z,1004.30
2019-03-25T03:42:09.078Z,1004.26
2019-03-25T03:43:10.454Z,1004.24
2019-03-25T03:44:11.846Z,1004.15
2019-03-25T03:45:13.251Z,1004.15
2019-03-25T03:46:14.646Z,1004.11
2019-03-25T03:47:16.027Z,1004.08
2019-03-25T03:48:17.432Z,1004.12
2019-03-25T03:49:18.817Z,1004.06
2019-03-25T03:50:20.199Z,1004.08
2019-03-25T03:51:21.603Z,1004.10
2019-03-25T03:52:22.973Z,1004.06
2019-03-25T03:53:24.362Z,1004.08
2019-03-25T03:54:25.756Z,1004.09
2019-03-25T03:55:27.145Z,1004.03
2019-03-25T03:56:28.522Z,1003.99
2019-03-25T03:57:29.905Z,1004.01
2019-03-25T03:58:31.297Z,1004.02
2019-03-25T03:59:32.673Z,1004.09
2019-03-25T04:00:34.052Z,1004.05
2019-03-25T04:01:35.447Z,1004.08
2019-03-25T04:02:36.831Z,1004.03
2019-03-25T04:03:38.223Z,1004.00
2019-03-25T04:04:39.618Z,1003.94
2019-03-25T04:05:41.001Z,1003.97
2019-03-25T04:06:42.387Z,1003.98
2019-03-25T04:07:43.771Z,1003.93
2019-03-25T04:08:45.160Z,1003.96
2019-03-25T04:09:46.544Z,1003.89
2019-03-25T04:10:47.938Z,1003.84
2019-03-25T04:11:49.338Z,1003.91
2019-03-25T04:12:50.713Z,1003.91
2019-03-25T04:13:52.092Z,1003.91
2019-03-25T04:14:53.483Z,1003.95
2019-03-25T04:15:54.874Z,1003.91
2019-03-25T04:16:56.267Z,1003.81
2019-03-25T04:17:57.651Z,1003.81
2019-03-25T04:18:59.041Z,1003.84
2019-03-25T04:20:00.518Z,1003.83
2019-03-25T04:21:01.777Z,1003.84
2019-03-25T04:22:03.179Z,1003.71
2019-03-25T04:23:04.566Z,1003.74
2019-03-25T04:24:05.959Z,1003.83
2019-03-25T04:25:07.358Z,1003.65
2019-03-25T04:26:08.743Z,1003.68
2019-03-25T04:27:10.142Z,1003.72
2019-03-25T04:28:11.529Z,1003.66
2019-03-25T04:29:12.922Z,1003.69
2019-03-25T04:30:14.331Z,1003.65
2019-03-25T04:31:15.715Z,1003.69
2019-03-25T04:32:17.120Z,1003.63
2019-03-25T04:33:18.510Z,1003.62
2019-03-25T04:34:19.905Z,1003.57
2019-03-25T04:35:21.298Z,1003.61
2019-03-25T04:36:22.680Z,1003.63
2019-03-25T04:37:24.092Z,1003.56
2019-03-25T04:38:25.480Z,1003.59
2019-03-25T04:39:26.872Z,1003.59
2019-03-25T04:40:28.261Z,1003.56
2019-03-25T04:41:29.641Z,1003.54
2019-03-25T04:42:31.028Z,1003.58
2019-03-25T04:43:32.406Z,1003.62
2019-03-25T04:44:33.803Z,1003.59
2019-03-25T04:45:35.176Z,1003.56
2019-03-25T04:46:36.564Z,1003.56
2019-03-25T04:47:37.948Z,1003.53
2019-03-25T04:48:39.342Z,1003.56
2019-03-25T04:49:40.733Z,1003.53
2019-03-25T04:50:42.114Z,1003.48
2019-03-25T04:51:44.906Z,1003.54
2019-03-25T04:52:44.851Z,1003.54
2019-03-25T04:53:46.238Z,1003.54
2019-03-25T04:54:47.627Z,1003.52
2019-03-25T04:55:49.019Z,1003.50
2019-03-25T04:56:50.414Z,1003.50
2019-03-25T04:57:51.808Z,1003.47
2019-03-25T04:58:53.195Z,1003.48
2019-03-25T04:59:54.577Z,1003.47
2019-03-25T05:00:56.049Z,1003.44
2019-03-25T05:01:57.321Z,1003.38
2019-03-25T05:02:58.705Z,1003.38
2019-03-25T05:04:00.090Z,1003.46
2019-03-25T05:05:01.488Z,1003.45
2019-03-25T05:06:02.870Z,1003.41
2019-03-25T05:07:04.249Z,1003.46
2019-03-25T05:08:05.639Z,1003.47
2019-03-25T05:09:07.021Z,1003.45
2019-03-25T05:10:08.403Z,1003.47
2019-03-25T05:11:09.796Z,1003.49
2019-03-25T05:12:11.196Z,1003.48
2019-03-25T05:13:12.573Z,1003.45
2019-03-25T05:14:13.964Z,1003.44
2019-03-25T05:15:15.344Z,1003.43
2019-03-25T05:16:18.571Z,1003.41
2019-03-25T05:17:18.099Z,1003.38
2019-03-25T05:18:19.470Z,1003.31
2019-03-25T05:19:20.857Z,1003.36
2019-03-25T05:20:22.246Z,1003.40
2019-03-25T05:21:23.631Z,1003.31
2019-03-25T05:22:25.021Z,1003.39
2019-03-25T05:23:26.405Z,1003.34
2019-03-25T05:24:27.805Z,1003.33
2019-03-25T05:25:29.193Z,1003.35
2019-03-25T05:26:30.576Z,1003.34
2019-03-25T05:27:31.962Z,1003.30
2019-03-25T05:28:33.369Z,1003.31
2019-03-25T05:29:34.751Z,1003.30
2019-03-25T05:30:36.135Z,1003.25
2019-03-25T05:31:37.529Z,1003.25
2019-03-25T05:32:38.917Z,1003.29
2019-03-25T05:33:40.319Z,1003.23
2019-03-25T05:34:41.704Z,1003.28
2019-03-25T05:35:43.091Z,1003.29
2019-03-25T05:36:44.474Z,1003.28
2019-03-25T05:37:45.890Z,1003.27
2019-03-25T05:38:47.270Z,1003.24
2019-03-25T05:39:48.650Z,1003.25
2019-03-25T05:40:50.050Z,1003.24
2019-03-25T05:41:51.430Z,1003.28
2019-03-25T05:42:52.815Z,1003.23
2019-03-25T05:43:54.222Z,1003.23
2019-03-25T05:44:55.624Z,1003.11
2019-03-25T05:45:57.008Z,1003.22
2019-03-25T05:46:58.404Z,1003.18
2019-03-25T05:47:59.792Z,1003.29
2019-03-25T05:49:01.187Z,1003.23
2019-03-25T05:50:02.575Z,1003.23
2019-03-25T05:51:03.956Z,1003.22
2019-03-25T05:52:05.347Z,1003.20
2019-03-25T05:53:06.812Z,1003.20
2019-03-25T05:54:08.147Z,1003.13
2019-03-25T05:55:09.559Z,1003.12
2019-03-25T05:56:10.935Z,1003.18
2019-03-25T05:57:12.319Z,1003.18
2019-03-25T05:58:13.766Z,1003.20
2019-03-25T05:59:15.163Z,1003.17
2019-03-25T06:00:16.539Z,1003.17
2019-03-25T06:01:17.911Z,1003.13
2019-03-25T06:02:19.305Z,1003.12
2019-03-25T06:03:20.691Z,1003.08
2019-03-25T06:04:22.074Z,1003.11
2019-03-25T06:05:23.461Z,1003.13
2019-03-25T06:06:24.855Z,1003.13
2019-03-25T06:07:26.251Z,1003.11
2019-03-25T06:08:27.676Z,1003.11
2019-03-25T06:09:29.116Z,1003.11
2019-03-25T06:10:30.522Z,1003.17
2019-03-25T06:11:31.912Z,1003.12
2019-03-25T06:12:33.294Z,1003.12
2019-03-25T06:13:34.692Z,1003.11
2019-03-25T06:14:36.096Z,1003.16
2019-03-25T06:15:37.478Z,1003.14
2019-03-25T06:16:38.874Z,1003.16
2019-03-25T06:17:40.283Z,1003.14
2019-03-25T06:18:41.673Z,1003.12
2019-03-25T06:19:43.076Z,1003.17
2019-03-25T06:20:44.461Z,1003.15
2019-03-25T06:21:45.859Z,1003.13
2019-03-25T06:22:47.237Z,1003.13
2019-03-25T06:23:48.629Z,1003.11
2019-03-25T06:24:50.016Z,1003.13
2019-03-25T06:25:51.400Z,1003.11
2019-03-25T06:26:52.788Z,1003.10
2019-03-25T06:27:54.190Z,1003.13
2019-03-25T06:28:55.589Z,1003.16
2019-03-25T06:29:56.987Z,1003.15
2019-03-25T06:30:58.360Z,1003.11
2019-03-25T06:31:59.765Z,1003.14
2019-03-25T06:33:11.731Z,1003.12
2019-03-25T06:34:02.534Z,1003.15
2019-03-25T06:35:03.930Z,1003.12
2019-03-25T06:36:05.320Z,1003.11
2019-03-25T06:37:06.731Z,1003.16
2019-03-25T06:38:08.124Z,1003.15
2019-03-25T06:39:09.520Z,1003.17
2019-03-25T06:40:10.916Z,1003.22
2019-03-25T06:41:12.307Z,1003.21
2019-03-25T06:42:13.696Z,1003.23
2019-03-25T06:43:15.092Z,1003.19
2019-03-25T06:44:16.478Z,1003.23
2019-03-25T06:45:17.869Z,1003.26
2019-03-25T06:46:19.251Z,1003.23
2019-03-25T06:47:20.633Z,1003.25
2019-03-25T06:48:22.025Z,1003.26
2019-03-25T06:49:23.409Z,1003.29
2019-03-25T06:50:24.804Z,1003.35
2019-03-25T06:51:26.191Z,1003.33
2019-03-25T06:52:27.585Z,1003.42
2019-03-25T06:53:28.983Z,1003.36
2019-03-25T06:54:30.375Z,1003.42
2019-03-25T06:55:31.768Z,1003.36
2019-03-25T06:56:33.152Z,1003.31
2019-03-25T06:57:34.537Z,1003.30
2019-03-25T06:58:35.930Z,1003.30
2019-03-25T06:59:37.331Z,1003.36
2019-03-25T07:00:38.711Z,1003.35
2019-03-25T07:01:40.106Z,1003.34
2019-03-25T07:02:41.494Z,1003.39
2019-03-25T07:03:42.939Z,1003.51
2019-03-25T07:04:44.334Z,1003.47
2019-03-25T07:05:45.722Z,1003.36
2019-03-25T07:06:47.110Z,1003.41
2019-03-25T07:07:48.496Z,1003.38
2019-03-25T07:08:49.888Z,1003.59
2019-03-25T07:09:51.290Z,1003.87
2019-03-25T07:10:52.685Z,1003.91
2019-03-25T07:11:54.071Z,1003.91
2019-03-25T07:12:55.466Z,1003.70
2019-03-25T07:13:56.863Z,1003.69
2019-03-25T07:14:58.252Z,1003.60
2019-03-25T07:15:59.649Z,1003.55
2019-03-25T07:17:01.047Z,1003.48
2019-03-25T07:18:02.443Z,1003.46
2019-03-25T07:19:03.831Z,1003.40
2019-03-25T07:20:05.234Z,1003.50
2019-03-25T07:21:06.621Z,1003.53
2019-03-25T07:22:08.097Z,1003.55
2019-03-25T07:23:09.490Z,1003.60
2019-03-25T07:24:10.875Z,1003.64
2019-03-25T07:25:12.280Z,1003.67
2019-03-25T07:26:13.683Z,1003.61
2019-03-25T07:27:15.088Z,1003.63
2019-03-25T07:28:16.479Z,1003.59
2019-03-25T07:29:17.864Z,1003.56
2019-03-25T07:30:19.260Z,1003.81
2019-03-25T07:31:20.658Z,1004.04
2019-03-25T07:32:22.057Z,1003.88
2019-03-25T07:33:23.489Z,1003.82
2019-03-25T07:34:24.876Z,1003.88
2019-03-25T07:35:26.292Z,1003.80
2019-03-25T07:36:27.697Z,1003.72
2019-03-25T07:37:29.079Z,1003.76
2019-03-25T07:38:30.472Z,1003.92
2019-03-25T07:39:31.880Z,1004.01
2019-03-25T07:40:33.275Z,1003.84
2019-03-25T07:41:34.669Z,1004.09
2019-03-25T07:42:36.061Z,1004.19
2019-03-25T07:43:37.451Z,1004.23
2019-03-25T07:44:38.855Z,1003.98
2019-03-25T07:45:40.821Z,1004.00
2019-03-25T07:46:42.219Z,1008.74
2019-03-25T07:47:43.628Z,1005.18
2019-03-25T07:48:45.031Z,1006.56
2019-03-25T07:49:46.437Z,1006.47
2019-03-25T07:50:47.832Z,1004.74
2019-03-25T07:51:49.235Z,1008.89
2019-03-25T07:52:50.661Z,1005.72
2019-03-25T07:53:52.057Z,1005.07
2019-03-25T07:54:53.469Z,1004.69
2019-03-25T07:55:54.862Z,1003.99
2019-03-25T07:56:56.272Z,1004.33
2019-03-25T07:57:57.660Z,1005.38
2019-03-25T07:58:59.087Z,1004.13
2019-03-25T08:00:00.488Z,1004.07
2019-03-25T08:01:01.874Z,1005.50
2019-03-25T08:02:03.313Z,1004.43
2019-03-25T08:03:04.686Z,1006.56
2019-03-25T08:04:06.124Z,1006.82
2019-03-25T08:05:07.547Z,1007.36
2019-03-25T08:06:08.959Z,1012.17
2019-03-25T08:07:10.346Z,1004.43
2019-03-25T08:08:11.759Z,1004.10
2019-03-25T08:09:13.175Z,1003.87
2019-03-25T08:10:14.602Z,1003.77
2019-03-25T08:11:16.081Z,1003.71
2019-03-25T08:12:17.544Z,1003.73
2019-03-25T08:13:19.222Z,1003.73
2019-03-25T08:14:20.502Z,1003.73
2019-03-25T08:15:21.916Z,1003.66
2019-03-25T08:16:23.318Z,1003.78
2019-03-25T08:17:25.591Z,1003.86
2019-03-25T08:18:27.021Z,1003.96
2019-03-25T08:19:28.419Z,1003.93
2019-03-25T08:20:29.821Z,1004.01
2019-03-25T08:21:31.231Z,1003.88
2019-03-25T08:22:32.625Z,1004.00
2019-03-25T08:23:34.020Z,1004.06
2019-03-25T08:24:35.419Z,1003.94
2019-03-25T08:25:36.829Z,1004.03
2019-03-25T08:26:38.216Z,1003.99
2019-03-25T08:27:39.618Z,1004.00
2019-03-25T08:28:41.098Z,1004.15
2019-03-25T08:29:42.516Z,1004.07
2019-03-25T08:30:43.904Z,1004.03
2019-03-25T08:31:45.303Z,1003.99
2019-03-25T08:32:46.730Z,1004.06
2019-03-25T08:33:48.149Z,1004.10
2019-03-25T08:34:49.538Z,1004.06
2019-03-25T08:35:50.953Z,1004.05
2019-03-25T08:36:52.378Z,1004.02
2019-03-25T08:37:53.757Z,1004.04
2019-03-25T08:38:55.166Z,1004.14
2019-03-25T08:39:56.573Z,1004.16
2019-03-25T08:40:57.971Z,1004.17
2019-03-25T08:41:59.361Z,1004.15
2019-03-25T08:43:00.760Z,1004.14
2019-03-25T08:44:02.166Z,1004.18
2019-03-25T08:45:03.563Z,1004.20
2019-03-25T08:46:04.994Z,1004.24
2019-03-25T08:47:06.399Z,1004.28
2019-03-25T08:48:07.800Z,1004.31
2019-03-25T08:49:11.757Z,1004.32
2019-03-25T08:50:10.559Z,1004.35
2019-03-25T08:51:11.941Z,1004.41
2019-03-25T08:52:13.340Z,1004.50
2019-03-25T08:53:14.769Z,1004.47
2019-03-25T08:54:16.164Z,1004.54
2019-03-25T08:55:17.614Z,1004.61
2019-03-25T08:56:19.001Z,1004.48
2019-03-25T08:57:20.394Z,1004.46
2019-03-25T08:58:21.800Z,1004.47
2019-03-25T08:59:23.200Z,1004.48
2019-03-25T09:00:24.630Z,1004.49
2019-03-25T09:01:26.019Z,1004.46
2019-03-25T09:02:27.409Z,1004.45
2019-03-25T09:03:28.812Z,1004.52
2019-03-25T09:04:30.197Z,1004.55
2019-03-25T09:05:31.596Z,1004.54
2019-03-25T09:06:32.993Z,1004.51
2019-03-25T09:07:34.385Z,1004.55
2019-03-25T09:08:35.827Z,1004.55
2019-03-25T09:09:37.229Z,1004.53
2019-03-25T09:10:38.613Z,1004.63
2019-03-25T09:11:40.011Z,1004.68
2019-03-25T09:12:41.412Z,1004.72
2019-03-25T09:13:42.801Z,1004.71
2019-03-25T09:14:44.191Z,1004.66
2019-03-25T09:15:45.580Z,1004.66
2019-03-25T09:16:46.970Z,1004.69
2019-03-25T09:17:48.365Z,1004.86
2019-03-25T09:18:49.749Z,1004.97
2019-03-25T09:19:51.140Z,1004.87
2019-03-25T09:20:52.533Z,1005.04
2019-03-25T09:21:53.924Z,1004.89
2019-03-25T09:22:55.312Z,1004.85
2019-03-25T09:23:56.700Z,1004.92
2019-03-25T09:24:58.092Z,1004.85
2019-03-25T09:25:59.484Z,1004.79
2019-03-25T09:27:00.876Z,1004.78
2019-03-25T09:28:02.291Z,1004.82
2019-03-25T09:29:03.676Z,1004.82
2019-03-25T09:30:05.062Z,1004.92
2019-03-25T09:31:06.458Z,1005.00
2019-03-25T09:32:07.852Z,1005.03
2019-03-25T09:33:09.245Z,1005.24
2019-03-25T09:34:10.632Z,1005.03
2019-03-25T09:35:12.029Z,1004.99
2019-03-25T09:36:13.417Z,1005.01
2019-03-25T09:37:14.875Z,1004.98
2019-03-25T09:38:16.161Z,1005.04
2019-03-25T09:39:17.553Z,1005.02
2019-03-25T09:40:18.945Z,1005.03
2019-03-25T09:41:20.341Z,1005.13
2019-03-25T09:42:21.746Z,1005.18
2019-03-25T09:43:23.138Z,1005.32
2019-03-25T09:44:24.543Z,1005.51
2019-03-25T09:45:25.937Z,1005.57
2019-03-25T09:46:27.345Z,1005.59
2019-03-25T09:47:28.739Z,1005.62
2019-03-25T09:48:30.135Z,1005.71
2019-03-25T09:49:31.558Z,1005.56
2019-03-25T09:50:32.962Z,1005.47
2019-03-25T09:51:34.365Z,1005.41
2019-03-25T09:52:38.679Z,1005.51
2019-03-25T09:53:37.132Z,1005.57
2019-03-25T09:54:38.526Z,1005.56
2019-03-25T09:55:39.930Z,1005.86
2019-03-25T09:56:41.327Z,1006.29
2019-03-25T09:57:42.730Z,1005.60
2019-03-25T09:58:44.130Z,1005.66
2019-03-25T09:59:45.525Z,1006.33
2019-03-25T10:00:46.926Z,1005.64
2019-03-25T10:01:48.312Z,1005.23
2019-03-25T10:02:49.710Z,1005.04
2019-03-25T10:03:51.112Z,1004.95
2019-03-25T10:04:52.521Z,1004.98
2019-03-25T10:05:53.924Z,1005.00
2019-03-25T10:06:55.325Z,1005.06
2019-03-25T10:07:56.727Z,1005.16
2019-03-25T10:08:58.125Z,1005.50
2019-03-25T10:09:59.529Z,1006.66
2019-03-25T10:11:00.937Z,1005.39
2019-03-25T10:12:02.332Z,1005.26
2019-03-25T10:13:03.725Z,1005.46
2019-03-25T10:14:05.117Z,1005.60
2019-03-25T10:15:06.533Z,1005.60
2019-03-25T10:16:07.933Z,1005.56
2019-03-25T10:17:09.343Z,1005.88
2019-03-25T10:18:10.744Z,1005.25
2019-03-25T10:19:12.148Z,1005.23
2019-03-25T10:20:13.558Z,1005.14
2019-03-25T10:21:14.952Z,1005.12
2019-03-25T10:22:16.358Z,1005.30
2019-03-25T10:23:17.766Z,1005.30
2019-03-25T10:24:19.179Z,1005.22
2019-03-25T10:25:20.570Z,1005.21
2019-03-25T10:26:21.980Z,1005.20
2019-03-25T10:27:23.376Z,1005.22
2019-03-25T10:28:24.783Z,1005.26
2019-03-25T10:29:26.176Z,1005.34
2019-03-25T10:30:27.595Z,1005.43
2019-03-25T10:31:28.983Z,1005.40
2019-03-25T10:32:30.384Z,1005.49
2019-03-25T10:33:31.781Z,1005.53
2019-03-25T10:34:33.173Z,1005.57
2019-03-25T10:35:34.564Z,1005.52
2019-03-25T10:36:35.964Z,1005.51
2019-03-25T10:37:37.357Z,1005.58
2019-03-25T10:38:38.754Z,1005.61
2019-03-25T10:39:40.147Z,1005.63
2019-03-25T10:40:41.537Z,1005.71
2019-03-25T10:41:42.921Z,1005.62
2019-03-25T10:42:44.334Z,1005.64
2019-03-25T10:43:45.743Z,1005.66
2019-03-25T10:44:47.135Z,1005.71
2019-03-25T10:45:48.536Z,1005.64
2019-03-25T10:46:49.935Z,1005.61
2019-03-25T10:47:51.328Z,1005.82
2019-03-25T10:48:52.726Z,1005.87
2019-03-25T10:49:54.132Z,1005.78
2019-03-25T10:50:55.527Z,1005.70
2019-03-25T10:51:56.916Z,1005.66
2019-03-25T10:52:58.341Z,1005.63
2019-03-25T10:53:59.737Z,1005.74
2019-03-25T10:55:01.208Z,1005.68
2019-03-25T10:56:02.574Z,1005.75
2019-03-25T10:57:04.026Z,1005.77
2019-03-25T10:58:05.452Z,1005.64
2019-03-25T10:59:06.856Z,1005.58
2019-03-25T11:00:08.268Z,1005.85
2019-03-25T11:01:09.688Z,1005.81
2019-03-25T11:02:11.112Z,1005.81
2019-03-25T11:03:12.538Z,1005.80
2019-03-25T11:04:13.938Z,1005.81
2019-03-25T11:05:15.357Z,1005.80
2019-03-25T11:06:16.766Z,1005.62
2019-03-25T11:07:18.225Z,1005.96
2019-03-25T11:08:19.570Z,1005.96
2019-03-25T11:09:21.005Z,1005.72
2019-03-25T11:10:22.375Z,1005.97
2019-03-25T11:11:23.810Z,1005.92
2019-03-25T11:12:25.236Z,1005.90
2019-03-25T11:13:26.661Z,1005.88
2019-03-25T11:14:28.063Z,1005.84
2019-03-25T11:15:29.467Z,1005.84
2019-03-25T11:16:30.871Z,1005.84
2019-03-25T11:17:32.283Z,1005.81
2019-03-25T11:18:33.687Z,1005.81
2019-03-25T11:19:35.097Z,1005.79
2019-03-25T11:20:36.512Z,1005.77
2019-03-25T11:21:37.941Z,1005.70
2019-03-25T11:22:39.349Z,1005.82
2019-03-25T11:23:40.754Z,1005.79
2019-03-25T11:24:42.164Z,1005.84
2019-03-25T11:25:43.574Z,1005.81
2019-03-25T11:26:45.002Z,1005.79
2019-03-25T11:27:54.031Z,1005.81
2019-03-25T11:28:47.794Z,1005.81
2019-03-25T11:29:49.209Z,1005.76
2019-03-25T11:30:50.621Z,1005.74
2019-03-25T11:31:52.036Z,1005.66
2019-03-25T11:32:53.448Z,1005.62
2019-03-25T11:33:54.858Z,1005.68
2019-03-25T11:34:56.274Z,1005.70
2019-03-25T11:35:57.694Z,1005.72
2019-03-25T11:36:59.115Z,1005.73
2019-03-25T11:38:00.514Z,1005.74
2019-03-25T11:39:01.926Z,1005.76
2019-03-25T11:40:03.537Z,1005.79
2019-03-25T11:41:04.956Z,1005.73
2019-03-25T11:42:06.367Z,1005.66
2019-03-25T11:43:07.809Z,1005.74
2019-03-25T11:44:10.184Z,1005.59
2019-03-25T11:45:11.585Z,1005.64
2019-03-25T11:46:13.051Z,1005.71
2019-03-25T11:47:14.477Z,1005.66
2019-03-25T11:48:15.884Z,1005.74
2019-03-25T11:49:17.305Z,1005.83
2019-03-25T11:50:18.706Z,1005.89
2019-03-25T11:51:20.116Z,1005.79
2019-03-25T11:52:21.532Z,1005.72
2019-03-25T11:53:22.938Z,1005.73
2019-03-25T11:54:24.719Z,1005.72
2019-03-25T11:55:26.183Z,1005.72
2019-03-25T11:56:27.575Z,1005.62
2019-03-25T11:57:28.975Z,1005.64
2019-03-25T11:58:30.380Z,1005.68
2019-03-25T11:59:31.784Z,1005.74
2019-03-25T12:00:33.201Z,1005.89
2019-03-25T12:01:34.606Z,1005.84
2019-03-25T12:02:36.012Z,1005.75
2019-03-25T12:03:37.415Z,1005.73
2019-03-25T12:04:38.814Z,1005.83
2019-03-25T12:05:40.714Z,1005.74
2019-03-25T12:06:41.601Z,1005.71
2019-03-25T12:07:43.003Z,1005.78
2019-03-25T12:08:44.402Z,1005.74
2019-03-25T12:09:45.829Z,1005.70
2019-03-25T12:10:47.228Z,1005.75
2019-03-25T12:11:48.619Z,1005.68
2019-03-25T12:12:50.026Z,1005.74
2019-03-25T12:13:51.502Z,1005.75
2019-03-25T12:14:52.917Z,1005.67
2019-03-25T12:15:54.323Z,1005.80
2019-03-25T12:16:55.728Z,1005.80
2019-03-25T12:17:57.126Z,1005.80
2019-03-25T12:18:58.530Z,1005.82
2019-03-25T12:19:59.932Z,1005.91
2019-03-25T12:21:01.364Z,1005.99
2019-03-25T12:22:02.762Z,1005.92